Thunder radar more information blitzortung!


Radar de pluja more information rain snow radar


Visita la nostra xarxa de llocs de meteo:

Template documentation
and downloads

And another site



No particular awareness of the weather is required.    There are no Weather-warnings

Pagina Historial Weather Underground text

Diari Resum May 27, 2017 Unitats:  Imperial    Mètric   Tant
« Previous Dia
SegĂźent Dia »
Diari Setmana Mensual Anual Personalitzada
  Maxima: Minima: Media:
Temperatura: 80.4 °F 60.1 °F 71.2 °F
Punt de rosada: 60.6 °F 50.5 °F 56.1 °F
Humitat: 82 % 38 % 61 %
Wind Speed: 12.7 mph 0 mph 4.5 mph
RĂ fegues de vent: 12.7 mph - -
Vent:- - East
Pression baro: 30.1 in 30 in -
Precipitacions: 0 in    
Historical Graphs
 
 
Dades de taula per May 27, 2017
Temps Temperatura Punt de rosada Pression baro Vent Wind Speed RĂ fegues de vent Humitat Rainfall Rate (Hourly)
00:00 63.3 °F 57.4 °F 30 in ENE 3 mph 5 mph 81 % 0 in
00:02 63.7 °F 56.3 °F 30 in ENE 3.6 mph 3.6 mph 77 % 0 in
00:07 63.5 °F 56.5 °F 30 in NNE 4.9 mph 4.9 mph 78 % 0 in
00:10 63.3 °F 57.4 °F 30 in NE 3 mph 6 mph 81 % 0 in
00:20 63.3 °F 57.4 °F 30 in NE 2 mph 6 mph 81 % 0 in
00:30 63.3 °F 57.4 °F 30 in ENE 6 mph 6 mph 81 % 0 in
00:40 63 °F 57 °F 30 in ENE 6 mph 8 mph 81 % 0 in
00:50 62.8 °F 57.2 °F 30 in NE 5 mph 6 mph 82 % 0 in
01:00 62.8 °F 57.2 °F 30 in NE 5 mph 6 mph 82 % 0 in
01:10 63 °F 57.4 °F 30 in NE 3 mph 6 mph 82 % 0 in
01:20 63 °F 57.4 °F 30 in NE 3 mph 6 mph 82 % 0 in
01:30 63 °F 57.4 °F 30 in NE 5 mph 6 mph 82 % 0 in
01:40 62.8 °F 57.2 °F 30.1 in ENE 5 mph 6 mph 82 % 0 in
01:50 62.8 °F 57.2 °F 30.1 in NE 3 mph 6 mph 82 % 0 in
02:00 62.8 °F 56.8 °F 30.1 in NE 6 mph 6 mph 81 % 0 in
02:10 63 °F 57 °F 30.1 in Calm   5 mph 81 % 0 in
02:20 63.1 °F 56.8 °F 30.1 in NE 3 mph 4 mph 80 % 0 in
02:30 63.5 °F 57.2 °F 30.1 in Calm   2 mph 80 % 0 in
02:40 63.7 °F 57.4 °F 30.1 in NE 3 mph 4 mph 80 % 0 in
03:00 64 °F 57.4 °F 30.1 in NE 3 mph 5 mph 79 % 0 in
03:10 64.4 °F 57.4 °F 30.1 in NE 2 mph 4 mph 78 % 0 in
03:20 64.8 °F 57.7 °F 30.1 in NE 2 mph 3 mph 78 % 0 in
03:30 64.8 °F 57.7 °F 30.1 in ENE 2 mph 3 mph 78 % 0 in
03:40 64.9 °F 57.9 °F 30.1 in ENE 3 mph 4 mph 78 % 0 in
03:50 64.9 °F 57.9 °F 30.1 in NE 2 mph 4 mph 78 % 0 in
04:00 65.3 °F 58.3 °F 30.1 in Calm   3 mph 78 % 0 in
04:10 65.8 °F 58.5 °F 30.1 in Calm   2 mph 77 % 0 in
04:20 66.4 °F 58.6 °F 30.1 in ESE 1 mph 2 mph 76 % 0 in
04:30 66.7 °F 58.6 °F 30.1 in ESE 2 mph 2 mph 75 % 0 in
04:40 67.5 °F 59.4 °F 30.1 in ESE 1 mph 2 mph 75 % 0 in
04:50 68.4 °F 59.7 °F 30.1 in ESE 1 mph 5 mph 74 % 0 in
05:00 69.3 °F 59.7 °F 30.1 in South 2 mph 4 mph 72 % 0 in
05:10 70.2 °F 60.3 °F 30.1 in SSW 1 mph 3 mph 71 % 0 in
05:20 70.7 °F 60.4 °F 30.1 in ENE 2 mph 5 mph 70 % 0 in
05:30 70.9 °F 60.3 °F 30.1 in East 2 mph 5 mph 69 % 0 in
05:40 71.4 °F 60.3 °F 30.1 in East 3 mph 4 mph 68 % 0 in
05:50 71.6 °F 60.1 °F 30.1 in ENE 3 mph 4 mph 67 % 0 in
06:00 72 °F 59.5 °F 30.1 in East 5 mph 6 mph 65 % 0 in
06:10 72.1 °F 59.7 °F 30.1 in East 3 mph 8 mph 65 % 0 in
06:20 73.2 °F 59.9 °F 30.1 in East 2 mph 8 mph 63 % 0 in
06:30 74.5 °F 60.6 °F 30.1 in East 2 mph 4 mph 62 % 0 in
06:40 73.9 °F 60.1 °F 30.1 in East 3 mph 9 mph 62 % 0 in
06:50 74.3 °F 59.5 °F 30.1 in ESE 3 mph 8 mph 60 % 0 in
07:00 74.3 °F 60.1 °F 30.1 in ESE 3 mph 5 mph 61 % 0 in
07:10 74.8 °F 60.1 °F 30.1 in East 5 mph 6 mph 60 % 0 in
07:20 76.1 °F 60.3 °F 30.1 in ESE 3 mph 5 mph 58 % 0 in
07:30 75.2 °F 59.4 °F 30.1 in East 2 mph 7 mph 58 % 0 in
07:40 75.7 °F 59.9 °F 30.1 in East 5 mph 9 mph 58 % 0 in
07:50 75.9 °F 60.1 °F 30.1 in East 3 mph 8 mph 58 % 0 in
08:00 77.2 °F 60.3 °F 30.1 in ESE 3 mph 4 mph 56 % 0 in
08:10 76.8 °F 59.4 °F 30.1 in East 5 mph 8 mph 55 % 0 in
08:20 76.5 °F 59.2 °F 30.1 in East 6 mph 8 mph 55 % 0 in
08:30 77.5 °F 59.2 °F 30.1 in East 5 mph 7 mph 53 % 0 in
13:37 77.9 °F 59.4 °F 30.1 in ESE 8.1 mph 8.1 mph 53 % 0 in
13:42 78.8 °F 59.7 °F 30.1 in East 6.9 mph 6.9 mph 52 % 0 in
13:47 78.3 °F 59.2 °F 30.1 in East 5.8 mph 5.8 mph 52 % 0 in
13:52 77.9 °F 58.8 °F 30.1 in East 5.8 mph 5.8 mph 52 % 0 in
13:57 78.3 °F 58.6 °F 30.1 in SSE 9.8 mph 9.8 mph 51 % 0 in
14:02 78.3 °F 58.6 °F 30.1 in ESE 5.9 mph 5.9 mph 51 % 0 in
14:07 78.1 °F 57.9 °F 30.1 in SSE 6.2 mph 6.2 mph 50 % 0 in
14:12 78.8 °F 58.6 °F 30.1 in ESE 6.9 mph 6.9 mph 50 % 0 in
14:17 78.4 °F 57.7 °F 30.1 in East 5.8 mph 5.9 mph 49 % 0 in
14:20 78.1 °F 57.4 °F 30.1 in SSE 9.2 mph 9.2 mph 49 % 0 in
14:25 78.8 °F 57.9 °F 30.1 in East 8.1 mph 8.1 mph 49 % 0 in
14:30 78.6 °F 57.4 °F 30.1 in SE 6.9 mph 6.9 mph 48 % 0 in
14:35 77.9 °F 56.7 °F 30.1 in ESE 6.9 mph 6.9 mph 48 % 0 in
14:40 78.4 °F 57 °F 30.1 in ENE 6.9 mph 6.9 mph 48 % 0 in
14:45 78.1 °F 56.1 °F 30.1 in East 10.4 mph 10.4 mph 47 % 0 in
14:50 78.3 °F 56.5 °F 30.1 in SE 9.2 mph 9.2 mph 47 % 0 in
14:55 79.3 °F 56.8 °F 30.1 in ESE 8.1 mph 8.1 mph 46 % 0 in
15:00 78.8 °F 55.8 °F 30.1 in ESE 9.7 mph 9.7 mph 45 % 0 in
15:05 78.3 °F 55.2 °F 30.1 in East 8.1 mph 8.1 mph 45 % 0 in
15:10 78.6 °F 54.9 °F 30.1 in NNE 11.5 mph 11.5 mph 44 % 0 in
15:15 78.3 °F 54 °F 30.1 in ESE 11.5 mph 11.5 mph 43 % 0 in
15:20 78.4 °F 54.1 °F 30.1 in East 6.9 mph 6.9 mph 43 % 0 in
15:25 78.6 °F 54.1 °F 30.1 in SW 8.1 mph 8.1 mph 43 % 0 in
15:30 79.3 °F 54.9 °F 30.1 in SSE 8.1 mph 8.1 mph 43 % 0 in
15:35 79.7 °F 55.9 °F 30.1 in ENE 5.9 mph 5.9 mph 44 % 0 in
15:40 79.2 °F 54.7 °F 30.1 in ESE 6 mph 6 mph 43 % 0 in
15:45 80.1 °F 54.9 °F 30.1 in SE 5.8 mph 5.8 mph 42 % 0 in
15:50 80.4 °F 55.2 °F 30.1 in SE 4.6 mph 4.6 mph 42 % 0 in
15:55 80.4 °F 54.7 °F 30.1 in SSE 5.8 mph 5.8 mph 41 % 0 in
16:00 79.7 °F 54 °F 30.1 in SE 10.4 mph 10.4 mph 41 % 0 in
16:05 80.4 °F 54 °F 30.1 in ESE 8.1 mph 8.1 mph 40 % 0 in
16:10 79.2 °F 51.4 °F 30.1 in SE 10.4 mph 10.4 mph 38 % 0 in
16:15 79.2 °F 52.9 °F 30.1 in SSE 6.9 mph 6.9 mph 40 % 0 in
16:20 79.3 °F 52.9 °F 30.1 in SE 8.1 mph 8.1 mph 40 % 0 in
16:25 79 °F 52 °F 30.1 in ENE 10.4 mph 10.4 mph 39 % 0 in
16:30 79 °F 52 °F 30.1 in SE 10.4 mph 10.4 mph 39 % 0 in
16:35 78.3 °F 50.5 °F 30.1 in ESE 8.7 mph 8.7 mph 38 % 0 in
16:40 78.6 °F 51.6 °F 30.1 in ESE 6.9 mph 6.9 mph 39 % 0 in
16:45 78.6 °F 50.9 °F 30.1 in ESE 10.5 mph 10.5 mph 38 % 0 in
16:55 78.8 °F 52.3 °F 30 in East 8.1 mph 8.1 mph 40 % 0 in
17:00 79 °F 53.2 °F 30 in SSE 9.2 mph 9.2 mph 41 % 0 in
17:05 79.2 °F 54.1 °F 30 in ESE 9.2 mph 9.2 mph 42 % 0 in
17:10 78.8 °F 53.1 °F 30 in ESE 7.6 mph 7.6 mph 41 % 0 in
17:15 78.8 °F 53.8 °F 30 in ENE 11.5 mph 11.5 mph 42 % 0 in
17:20 78.8 °F 53.1 °F 30 in East 8.1 mph 8.1 mph 41 % 0 in
17:25 78.6 °F 53.6 °F 30 in East 9.2 mph 9.2 mph 42 % 0 in
17:26 78.8 °F 53.8 °F 30 in ESE 7.8 mph 7.8 mph 42 % 0 in
17:31 78.6 °F 53.6 °F 30 in East 8.1 mph 8.1 mph 42 % 0 in
17:36 78.6 °F 53.6 °F 30 in ESE 12.7 mph 12.7 mph 42 % 0 in
17:41 78.6 °F 53.6 °F 30 in ESE 6.9 mph 6.9 mph 42 % 0 in
17:46 78.4 °F 52.9 °F 30 in ESE 9.2 mph 9.2 mph 41 % 0 in
17:51 78.4 °F 53.4 °F 30 in SE 9.2 mph 9.2 mph 42 % 0 in
17:56 78.1 °F 52.5 °F 30 in ESE 8.1 mph 8.1 mph 41 % 0 in
18:01 78.1 °F 52.5 °F 30 in ESE 6.2 mph 6.2 mph 41 % 0 in
18:06 78.1 °F 51.8 °F 30 in East 6.9 mph 6.9 mph 40 % 0 in
18:11 77.5 °F 52 °F 30 in ENE 12.7 mph 12.7 mph 41 % 0 in
18:16 77.5 °F 52 °F 30 in ESE 8.1 mph 8.1 mph 41 % 0 in
18:21 77.4 °F 52.5 °F 30 in ENE 9.2 mph 9.2 mph 42 % 0 in
18:26 76.8 °F 53.2 °F 30 in ENE 9.2 mph 9.2 mph 44 % 0 in
18:31 76.6 °F 53.8 °F 30 in SSE 11.5 mph 11.5 mph 45 % 0 in
18:36 76.6 °F 54.3 °F 30 in ESE 6.2 mph 6.2 mph 46 % 0 in
18:41 76.5 °F 54.7 °F 30 in SE 6 mph 6 mph 47 % 0 in
18:46 76.1 °F 54.3 °F 30 in ESE 6.2 mph 6.2 mph 47 % 0 in
18:51 75.7 °F 54.1 °F 30 in East 8.5 mph 8.5 mph 47 % 0 in
18:56 75.7 °F 54.7 °F 30 in ESE 8.1 mph 8.1 mph 48 % 0 in
19:01 75.4 °F 54.3 °F 30 in ESE 8.1 mph 8.1 mph 48 % 0 in
19:06 75.4 °F 54.9 °F 30 in ESE 4.6 mph 4.9 mph 49 % 0 in
19:11 75.2 °F 54.7 °F 30 in ESE 8.1 mph 8.1 mph 49 % 0 in
19:16 74.8 °F 54.3 °F 30 in East 8.1 mph 8.1 mph 49 % 0 in
19:21 74.7 °F 54.9 °F 30 in East 8.1 mph 8.1 mph 50 % 0 in
19:26 74.5 °F 54.7 °F 30 in SE 8.1 mph 8.1 mph 50 % 0 in
19:30 65.5 °F 56.7 °F 30.1 in Calm     73 % 0 in
19:31 74.5 °F 54.7 °F 30 in SE 5.8 mph 5.8 mph 50 % 0 in
19:36 74.3 °F 55 °F 30 in ESE 9.8 mph 9.8 mph 51 % 0 in
19:40 65.3 °F 56.8 °F 30.1 in NNE 1 mph   74 % 0 in
19:41 74.1 °F 54.9 °F 30 in NNE 5.8 mph 5.8 mph 51 % 0 in
19:46 73.8 °F 55 °F 30 in ENE 7.4 mph 7.4 mph 52 % 0 in
19:50 65.3 °F 56.8 °F 30.1 in Calm   2 mph 74 % 0 in
19:51 73.2 °F 55.6 °F 30 in East 9.2 mph 9.2 mph 54 % 0 in
19:56 73.2 °F 55.6 °F 30 in ENE 6.4 mph 6.4 mph 54 % 0 in
20:00 65.1 °F 56.7 °F 30.1 in NNE 1 mph 2 mph 74 % 0 in
20:01 72.9 °F 55.8 °F 30 in ENE 5.8 mph 5.8 mph 55 % 0 in
20:06 72.9 °F 55.8 °F 30.1 in East 3.6 mph 3.6 mph 55 % 0 in
20:10 64.9 °F 56.8 °F 30.1 in Calm   2 mph 75 % 0 in
20:11 72.5 °F 55.9 °F 30.1 in ENE 5.8 mph 5.8 mph 56 % 0 in
20:16 72.3 °F 55.8 °F 30.1 in ENE 6.9 mph 6.9 mph 56 % 0 in
20:20 64.8 °F 56.7 °F 30.1 in Calm   1 mph 75 % 0 in
20:21 72.1 °F 56.5 °F 30.1 in ESE 4.6 mph 4.6 mph 58 % 0 in
20:23 72 °F 55.9 °F 30.1 in NNE 4.6 mph 4.6 mph 57 % 0 in
20:28 71.8 °F 55.8 °F 30.1 in ESE 6.9 mph 6.9 mph 57 % 0 in
20:30 64.4 °F 56.3 °F 30.1 in NE 1 mph 1 mph 75 % 0 in
20:33 71.6 °F 55.6 °F 30.1 in ESE 4.6 mph 4.6 mph 57 % 0 in
20:38 71.4 °F 55.9 °F 30.1 in ESE 4.6 mph 4.6 mph 58 % 0 in
20:40 64.4 °F 56.7 °F 30.1 in Calm   1 mph 76 % 0 in
20:43 71.2 °F 55.8 °F 30.1 in ENE 4.6 mph 4.6 mph 58 % 0 in
20:48 71.1 °F 55.6 °F 30.1 in East 4.6 mph 4.6 mph 58 % 0 in
20:50 64 °F 56.3 °F 30.1 in Calm     76 % 0 in
20:53 70.9 °F 55.8 °F 30.1 in ESE 3.5 mph 3.5 mph 59 % 0 in
20:58 70.7 °F 55.8 °F 30.1 in ESE 4.9 mph 4.9 mph 59 % 0 in
21:00 63.9 °F 56.1 °F 30.1 in Calm     76 % 0 in
21:03 70.5 °F 55.9 °F 30.1 in ENE 3.5 mph 3.5 mph 60 % 0 in
21:08 70.3 °F 55.8 °F 30.1 in East 2.9 mph 2.9 mph 60 % 0 in
21:10 63.5 °F 55.8 °F 30.1 in Calm   1 mph 76 % 0 in
21:13 70 °F 55.9 °F 30.1 in ESE 4.6 mph 4.6 mph 61 % 0 in
21:18 70 °F 56.5 °F 30.1 in ESE 4.6 mph 4.6 mph 62 % 0 in
21:20 63 °F 55.6 °F 30.1 in Calm     77 % 0 in
21:23 69.6 °F 55.9 °F 30.1 in East 2.4 mph 2.4 mph 62 % 0 in
21:28 69.4 °F 55.9 °F 30.1 in East 3.5 mph 3.5 mph 62 % 0 in
21:30 62.6 °F 55.2 °F 30.1 in Calm     77 % 0 in
21:33 69.3 °F 56.1 °F 30.1 in East 3.1 mph 3.1 mph 63 % 0 in
21:38 69.3 °F 56.1 °F 30.1 in ENE 2.3 mph 2.3 mph 63 % 0 in
21:40 62.4 °F 55.8 °F 30.1 in Calm     79 % 0 in
21:43 69.1 °F 55.9 °F 30.1 in East 2.3 mph 2.3 mph 63 % 0 in
21:48 68.9 °F 56.1 °F 30.1 in East 1.2 mph 1.2 mph 64 % 0 in
21:50 62.2 °F 55.6 °F 30.1 in SW 1 mph 1 mph 79 % 0 in
21:53 68.7 °F 55.9 °F 30 in NE 2.3 mph 2.3 mph 64 % 0 in
21:58 68.7 °F 55.9 °F 30 in ENE 2.3 mph 2.3 mph 64 % 0 in
22:00 62.2 °F 55.6 °F 30.1 in Calm   1 mph 79 % 0 in
22:03 68.5 °F 56.3 °F 30 in NNE 2.3 mph 2.3 mph 65 % 0 in
22:08 68.4 °F 56.1 °F 30.1 in East 1.2 mph 1.4 mph 65 % 0 in
22:10 62.2 °F 55.6 °F 30.1 in ENE 1 mph 1 mph 79 % 0 in
22:13 68.4 °F 56.1 °F 30.1 in NE 2.3 mph 2.3 mph 65 % 0 in
22:18 68.2 °F 56.5 °F 30.1 in NE 1.6 mph   66 % 0 in
22:20 62.2 °F 55.6 °F 30.1 in ENE 1 mph 1 mph 79 % 0 in
22:23 68 °F 56.1 °F 30.1 in NE 2.3 mph 2.3 mph 66 % 0 in
22:28 68 °F 56.1 °F 30.1 in NE 2.3 mph 2.3 mph 66 % 0 in
22:30 61.9 °F 55.2 °F 30.1 in ESE 1 mph 2 mph 79 % 0 in
22:33 68 °F 56.1 °F 30.1 in ENE 2.3 mph 2.3 mph 66 % 0 in
22:38 68 °F 56.1 °F 30.1 in NE 2.3 mph 2.3 mph 66 % 0 in
22:40 61.2 °F 54.7 °F 30.1 in Calm   2 mph 79 % 0 in
22:44 67.8 °F 56.5 °F 30.1 in ENE 2.3 mph 2.3 mph 67 % 0 in
22:49 67.8 °F 56.5 °F 30.1 in ENE 1.4 mph 1.4 mph 67 % 0 in
22:50 60.8 °F 54.1 °F 30.1 in Calm   2 mph 79 % 0 in
22:54 67.6 °F 56.3 °F 30.1 in NE 2.3 mph   67 % 0 in
22:59 67.6 °F 56.3 °F 30.1 in ENE 2.3 mph 2.3 mph 67 % 0 in
23:00 60.4 °F 54 °F 30.1 in Calm     79 % 0 in
23:04 67.5 °F 56.1 °F 30.1 in NE 2.4 mph 2.4 mph 67 % 0 in
23:09 67.3 °F 56.5 °F 30.1 in NNE 2.4 mph 2.4 mph 68 % 0 in
23:10 60.4 °F 54.1 °F 30.1 in Calm     80 % 0 in
23:14 67.3 °F 56.5 °F 30.1 in NE 1.2 mph   68 % 0 in
23:19 67.1 °F 56.1 °F 30.1 in ENE 1.4 mph 1.4 mph 68 % 0 in
23:20 60.4 °F 54.1 °F 30.1 in Calm     80 % 0 in
23:24 67.1 °F 56.1 °F 30.1 in NE 1.4 mph 1.4 mph 68 % 0 in
23:29 66.9 °F 55.9 °F 30.1 in NE 1.2 mph   68 % 0 in
23:30 60.3 °F 54.1 °F 30.1 in Calm     80 % 0 in
23:34 66.9 °F 55.9 °F 30.1 in NNE 2.3 mph 2.3 mph 68 % 0 in
23:39 66.7 °F 56.1 °F 30.1 in NNE 2.3 mph 2.3 mph 69 % 0 in
23:40 60.1 °F 54 °F 30.1 in Calm     80 % 0 in
23:44 66.6 °F 56.1 °F 30.1 in NNE 1.4 mph 1.4 mph 69 % 0 in
23:49 66.4 °F 56.3 °F 30.1 in ENE 2.3 mph 2.3 mph 70 % 0 in
23:50 60.1 °F 54 °F 30.1 in SW 1 mph 2 mph 80 % 0 in
23:54 66.2 °F 56.1 °F 30.1 in NNW 1.2 mph   70 % 0 in
23:59 66 °F 56.3 °F 30.1 in NNE 1.2 mph   71 % 0 in
Meteo Sesrovires
Elogis d' Weather Underground - 3.75 mb

Guio original per  Jim McMurry - jmcmurry@mwt.net Adaptat per a la plantilla per  Wim van der Kuil - Leuven-Template.eu

Trobareu la nostra informacio del temps tambe a:

Weather Underground

AWEKAS